METAR Data
IDs: Format: Raw Decoded Include TAF

Data at: 1532 UTC 12 Dec 2018

PAWD 121453Z AUTO 02008KT 10SM OVC055 M02/M06 A2899 RMK AO2 SNB30E39 SLP817 P0000 60000 T10221061 53020 TSNO $
PAWD 121353Z AUTO 01010KT 10SM OVC065 M02/M07 A2897 RMK AO2 SLP809 T10171067 TSNO $
PAWD 121253Z AUTO 01009G18KT 10SM OVC055 M02/M06 A2895 RMK AO2 SLP802 T10171061 TSNO $
PAWD 121153Z AUTO 02010KT 10SM OVC050 M02/M06 A2893 RMK AO2 SLP797 60000 T10171056 10000 21017 53017 TSNO $
PAWD 121053Z AUTO 03013G18KT 10SM OVC055 M01/M06 A2891 RMK AO2 SLP790 T10111056 TSNO $
PAWD 120953Z AUTO 02011KT 10SM OVC055 M01/M06 A2890 RMK AO2 SNE37 SLP786 P0000 T10111056 TSNO $
PAWD 120853Z AUTO 01013G20KT 9SM -SN OVC040 M01/M06 A2888 RMK AO2 PK WND 35026/0754 SNB52 SLP780 P0000 60000 T10111056 400111028 53023 TSNO $
PAWD 120753Z AUTO 35013KT 10SM BKN042 OVC065 M01/M06 A2886 RMK AO2 UPB36E45SNE36 SLP773 P0000 T10061056 TSNO $
PAWD 120653Z AUTO 35016G22KT 5SM -SN OVC040 M01/M05 A2883 RMK AO2 SNE25B49 SLP763 P0000 T10061050 TSNO $
PAWD 120553Z AUTO 35018G25KT 4SM -SN OVC037 M01/M04 A2881 RMK AO2 PK WND 34027/0456 SLP757 P0000 60000 T10061039 10011 21022 53018 TSNO $
PAWD 120453Z AUTO 33018G27KT 3SM -SN FEW022 OVC041 00/M03 A2879 RMK AO2 PK WND 34027/0451 SLP750 P0000 T00001033 TSNO $
PAWD 120427Z AUTO 33012G21KT 7SM -SN FEW012 SCT017 OVC036 00/M03 A2878 RMK AO2 P0000 T00001028 TSNO $
PAWD 120416Z AUTO 34009G15KT 5SM -SN SCT006 BKN012 OVC036 01/M02 A2878 RMK AO2 P0000 T00061022 TSNO $
PAWD 120403Z AUTO 00000KT 3SM -SN BR BKN006 OVC012 01/M01 A2878 RMK AO2 CIG 004V008 P0000 T00061006 TSNO $
PAWD 120349Z AUTO 00000KT 1 3/4SM -SN BR BKN006 BKN009 OVC013 01/M01 A2878 RMK AO2 SNB06 SLP744 P0000 T00061006 TSNO $
PAWD 120348Z AUTO 00000KT 1 3/4SM -SN BR BKN006 OVC011 01/M01 A2877 RMK AO2 SNB06 P0000 TSNO $
PAWD 120336Z AUTO 00000KT 2 1/2SM -SN BR FEW006 BKN011 OVC030 01/00 A2877 RMK AO2 SNB06 P0000 T00110000 TSNO $
PAWD 120320Z AUTO 00000KT 5SM -SN BR BKN011 BKN021 OVC034 01/M01 A2877 RMK AO2 SNB06 P0000 T00061006 TSNO $
PAWD 120253Z AUTO 00000KT 10SM SCT033 OVC050 01/M01 A2876 RMK AO2 SLP739 T00111011 53015 TSNO $
PAWD 120153Z AUTO 24003KT 10SM BKN044 OVC055 M01/M01 A2874 RMK AO2 SLP733 T10111011 TSNO $
PAWD 120053Z AUTO 01005KT 10SM FEW049 SCT060 M02/M03 A2872 RMK AO2 SLP727 T10171028 TSNO $
PAWD 112353Z AUTO 35005KT 10SM FEW045 OVC100 M01/M02 A2872 RMK AO2 SLP724 T10061017 51010 TSNO $
PAWD 112253Z AUTO 34004KT 10SM M01/M02 A2871 RMK AO2 SLP722 T10111017 TSNO $
PAWD 112153Z AUTO A2870 RMK AO2 SLP721 PWINO FZRANO TSNO $
PAWD 112053Z AUTO 35004KT 10SM OVC033 M01/M02 A2869 RMK AO2 SLP714 T10111017 51018 TSNO $
PAWD 111953Z AUTO 35005KT 10SM OVC045 M02/M02 A2867 RMK AO2 SLP710 T10171022 TSNO $
PAWD 111853Z AUTO 30003KT 10SM FEW034 SCT100 M02/M02 A2866 RMK AO2 SLP704 T10171022 TSNO $
PAWD 111753Z AUTO 00000KT 9SM FEW027 OVC034 M01/M01 A2863 RMK AO2 SNB31E53 SLP696 P0000 60000 T10061011 10000 21011 53021 TSNO $
PAWD 111744Z AUTO 34004KT 8SM -SN SCT027 OVC032 M01/M02 A2863 RMK AO2 SNB31 P0000 T10061017 TSNO $
PAWD 111653Z AUTO 36004KT 10SM OVC028 M01/M02 A2861 RMK AO2 SLP689 T10111017 TSNO $
PAWD 111625Z AUTO 34005KT 10SM BKN028 BKN070 M01/M02 A2860 RMK AO2 T10111017 TSNO $
PAWD 111553Z AUTO 36005KT 10SM SCT050 SCT070 M01/M02 A2859 RMK AO2 SLP681 T10111017 TSNO $
PAWD 111453Z AUTO 36003KT 10SM BKN090 BKN120 M01/M02 A2857 RMK AO2 SLP675 60000 T10061017 53015 TSNO $
PAWD 111353Z AUTO 00000KT 9SM FEW042 SCT050 OVC070 00/M01 A2855 RMK AO2 SNE48 SLP669 P0000 T00001006 TSNO $
PAWD 111344Z AUTO 35003KT 6SM -SN BR FEW011 BKN044 OVC070 M01/M01 A2855 RMK AO2 P0000 T10061006 TSNO $
PAWD 111334Z AUTO 02004KT 2 1/2SM -SN BR SCT011 BKN020 OVC040 00/M01 A2854 RMK AO2 P0000 T00001006 TSNO $
PAWD 111310Z AUTO 02003KT 4SM -SN BR OVC011 00/M01 A2854 RMK AO2 P0000 T00001006 TSNO $
PAWD 111253Z AUTO 01004KT 4SM -SN BR BKN008 OVC013 00/M01 A2854 RMK AO2 SLP665 P0000 T00001006 TSNO $
PAWD 111238Z AUTO 36003KT 2 1/2SM -SN BR BKN006 OVC012 00/M01 A2854 RMK AO2 P0000 T00001006 TSNO $
PAWD 111153Z AUTO 00000KT 1 1/4SM -SN BR BKN005 OVC009 00/00 A2853 RMK AO2 SLP660 P0000 60000 T00000000 10028 20000 52005 TSNO $
PAWD 111053Z AUTO 00000KT 1SM -SN BR VV007 01/01 A2851 RMK AO2 SLP655 P0000 T00060006 TSNO $
PAWD 111048Z AUTO 00000KT 1 1/4SM -SN BR FEW004 OVC008 01/01 A2851 RMK AO2 P0000 TSNO $
PAWD 111036Z AUTO 00000KT 1SM -SN BR FEW005 OVC009 01/01 A2851 RMK AO2 P0000 T00060006 TSNO $
PAWD 111024Z AUTO 00000KT 1SM -SN BR FEW005 OVC010 01/00 A2850 RMK AO2 P0000 T00060000 TSNO $
PAWD 110953Z AUTO 00000KT 1 1/2SM -SN BR FEW006 BKN012 OVC021 01/01 A2850 RMK AO2 SLP650 P0000 T00060006 TSNO $
PAWD 110950Z AUTO 00000KT 1 1/2SM -SN BR FEW006 SCT012 OVC021 01/01 A2850 RMK AO2 P0000 TSNO $
PAWD 110945Z AUTO 36003KT 2SM -SN BR SCT006 BKN012 OVC023 01/01 A2850 RMK AO2 P0000 T00060006 TSNO $
PAWD 110935Z AUTO 35004KT 2 1/2SM -SN BR FEW006 SCT012 OVC027 01/00 A2850 RMK AO2 P0000 T00060000 TSNO $
PAWD 110918Z AUTO 36005KT 2SM -SN BR FEW006 FEW012 OVC025 01/00 A2850 RMK AO2 P0000 T00060000 TSNO $
PAWD 110907Z AUTO 36005KT 2SM -SN BR OVC027 01/00 A2850 RMK AO2 P0000 T00060000 TSNO $
PAWD 110853Z AUTO 35006KT 4SM -SN BR OVC029 01/00 A2850 RMK AO2 RAB0758E10UPB10E12SNB20 SLP650 P0000 60000 T00060000 400281011 55003 TSNO $
PAWD 110848Z AUTO 34006KT 4SM -SN BR OVC029 01/00 A2850 RMK AO2 RAB0758E10UPB10E12SNB20 P0000 TSNO $
PAWD 110753Z AUTO 33010KT 10SM OVC040 01/M01 A2850 RMK AO2 RAB22E41UPB41E45 SLP650 P0000 T00111006 TSNO $
PAWD 110653Z AUTO 01003KT 10SM OVC046 02/00 A2851 RMK AO2 SLP653 T00220000 TSNO $
PAWD 110553Z AUTO 01008KT 10SM OVC050 03/M01 A2852 RMK AO2 SLP659 T00281006 10028 21006 56030 TSNO $
PAWD 110453Z AUTO 36013G18KT 10SM BKN055 02/M01 A2854 RMK AO2 SLP665 T00221006 TSNO $
PAWD 110353Z AUTO 00000KT 10SM OVC055 01/00 A2857 RMK AO2 SLP676 T00060000 TSNO $